< < Back
Terminal Aerodrome Forecast


Current Version              Previous Versions:   1  2  3  4  5  6  7  8  9  

Terminal Aerodrome Forecast

752
FTUS42 KFFC 302336
TAFAHN
TAF
KAHN 302336Z 3100/3124 31004KT P6SM FEW150
     FM310300 04004KT P6SM FEW150
     FM310800 03005KT P6SM FEW250
     FM311400 09006KT P6SM FEW050
     FM311800 34006KT P6SM SCT060=

Latest METAR

384
SAUS70 KWBC 311000
MTRAHN
METAR KAHN 310951Z AUTO 07004KT 10SM CLR 19/18 A2993 RMK AO2 SLP127
T01940183


USA.gov is the U.S. government's official web portal to all federal, state and local government web resources and services.